Terminal Aerodrome Forecast
Issued by NWS Sterling, VA

Current Version | Previous Version | Text Only | Print | Product List | Glossary Off
Versions: 1 2 3 4 5 6 7 8 9 10 11 12 13 14 15 16 17 18 19 20

000
FTUS41 KLWX 242100 AAA
TAFIAD
TAF AMD
KIAD 242100Z 2421/2524 11006KT P6SM SCT040 BKN070
     FM250000 VRB03KT P6SM FEW250
     FM251600 07007KT P6SM FEW250=

USA.gov is the U.S. government's official web portal to all federal, state and local government web resources and services.